Fannin, Texas
Current Conditions -  °F | °C
As of 7:51 AM on Tuesday 27 Jan 2015 (Local Time) from KVCT Reporting Station
Clear Clear  
Wind Chill: 45°   Ceiling: Unl
Heat Index: 48°   Visibility: 10mi
Dew Point: 40°   Wind: 7mph
Humidity: 74%   Direction: 240°WSW
Pressure: 30.19"   Gusts: NA
Location:  28.7°N, 97.24°W
Report Text: KVCT 271351Z 24006KT 10SM CLR 09/04 A3019 RMK AO2 SLP223 T00890044
Loading
Personal Weather Stations






























Interactive Weather Map New forecast layout! Learn more

10-Day Weather Forecast

Advertisements
Track Severe Weather on mobile